createdAt,value
2023-02-13T00:00:57.078Z,-4.56
2023-02-13T00:03:24.778Z,-4.59
2023-02-13T00:05:52.520Z,-4.57
2023-02-13T00:08:19.956Z,-4.60
2023-02-13T00:10:48.198Z,-4.52
2023-02-13T00:13:16.335Z,-4.47
2023-02-13T00:15:43.988Z,-4.44
2023-02-13T00:18:11.805Z,-4.39
2023-02-13T00:20:39.327Z,-4.38
2023-02-13T00:23:12.409Z,-4.30
2023-02-13T00:30:43.891Z,-4.08
2023-02-13T00:33:42.909Z,-4.08
2023-02-13T00:36:38.989Z,-4.06
2023-02-13T00:46:42.302Z,-3.93
2023-02-13T00:49:33.907Z,-3.79
2023-02-13T00:52:38.042Z,-3.87
2023-02-13T00:59:20.243Z,-3.80
2023-02-13T01:01:47.862Z,-3.73
2023-02-13T01:04:21.776Z,-3.70
2023-02-13T01:07:32.942Z,-3.58
2023-02-13T01:10:43.765Z,-3.52
2023-02-13T01:13:11.328Z,-3.65
2023-02-13T01:15:39.965Z,-3.63
2023-02-13T01:18:07.989Z,-3.58
2023-02-13T01:20:35.603Z,-3.58
2023-02-13T01:23:03.308Z,-3.60
2023-02-13T01:25:30.824Z,-3.61
2023-02-13T01:27:58.694Z,-3.60
2023-02-13T01:30:26.152Z,-3.59
2023-02-13T01:32:56.438Z,-3.59
2023-02-13T01:35:23.903Z,-3.60
2023-02-13T01:37:51.384Z,-3.48
2023-02-13T01:40:19.055Z,-3.46
2023-02-13T01:42:46.564Z,-3.42
2023-02-13T01:45:14.135Z,-3.39
2023-02-13T01:47:49.762Z,-3.36
2023-02-13T01:50:30.810Z,-3.30
2023-02-13T01:53:07.260Z,-3.30
2023-02-13T01:55:39.039Z,-3.33
2023-02-13T01:58:13.446Z,-3.29
2023-02-13T02:00:41.572Z,-3.26
2023-02-13T02:03:17.207Z,-3.22
2023-02-13T02:05:45.138Z,-3.30
2023-02-13T02:08:15.886Z,-3.22
2023-02-13T02:10:44.068Z,-3.28
2023-02-13T02:13:15.305Z,-3.29
2023-02-13T02:15:44.436Z,-3.33
2023-02-13T02:18:17.227Z,-3.30
2023-02-13T02:21:21.490Z,-3.24
2023-02-13T02:29:14.373Z,-3.21
2023-02-13T02:33:21.816Z,-3.15
2023-02-13T02:44:35.516Z,-3.15
2023-02-13T03:09:08.006Z,-3.06
2023-02-13T03:12:21.808Z,-3.17
2023-02-13T03:15:33.114Z,-3.10
2023-02-13T03:18:19.524Z,-3.15
2023-02-13T03:21:24.241Z,-3.08
2023-02-13T03:24:17.415Z,-3.02
2023-02-13T03:27:37.500Z,-3.03
2023-02-13T03:35:05.552Z,-3.10
2023-02-13T03:46:53.861Z,-3.00
2023-02-13T03:50:07.231Z,-2.92
2023-02-13T03:53:14.823Z,-2.87
2023-02-13T03:56:06.469Z,-2.82
2023-02-13T03:59:15.664Z,-2.68
2023-02-13T04:06:32.627Z,-2.53
2023-02-13T04:09:33.667Z,-2.55
2023-02-13T04:12:26.126Z,-2.56
2023-02-13T04:15:03.100Z,-2.46
2023-02-13T04:17:33.837Z,-2.18
2023-02-13T04:20:01.834Z,-2.35
2023-02-13T04:22:31.469Z,-2.34
2023-02-13T04:24:59.009Z,-2.29
2023-02-13T04:27:28.327Z,-2.28
2023-02-13T04:29:55.959Z,-2.36
2023-02-13T04:32:23.515Z,-2.40
2023-02-13T04:34:50.936Z,-2.50
2023-02-13T04:37:18.413Z,-2.42
2023-02-13T04:39:45.946Z,-2.66
2023-02-13T04:42:13.479Z,-2.71
2023-02-13T04:44:41.085Z,-2.69
2023-02-13T04:47:08.541Z,-2.64
2023-02-13T04:49:36.122Z,-2.59
2023-02-13T04:52:05.992Z,-2.56
2023-02-13T04:54:36.194Z,-2.58
2023-02-13T04:57:03.768Z,-2.58
2023-02-13T04:59:31.457Z,-2.48
2023-02-13T05:01:59.411Z,-2.63
2023-02-13T05:04:27.253Z,-2.66
2023-02-13T05:06:55.204Z,-2.58
2023-02-13T05:09:22.783Z,-2.68
2023-02-13T05:11:54.575Z,-2.75
2023-02-13T05:14:22.190Z,-2.70
2023-02-13T05:16:52.607Z,-2.81
2023-02-13T05:19:20.192Z,-2.80
2023-02-13T05:22:06.124Z,-2.68
2023-02-13T05:24:33.738Z,-2.61
2023-02-13T05:27:01.209Z,-2.56
2023-02-13T05:29:28.827Z,-2.55
2023-02-13T05:31:58.545Z,-2.40
2023-02-13T05:34:28.021Z,-2.30
2023-02-13T05:36:55.956Z,-2.27
2023-02-13T05:39:23.458Z,-2.26
2023-02-13T05:41:50.992Z,-2.19
2023-02-13T05:44:18.508Z,-2.13
2023-02-13T05:46:46.316Z,-2.09
2023-02-13T05:49:15.694Z,-2.08
2023-02-13T05:51:43.707Z,-2.01
2023-02-13T05:54:11.246Z,-2.05
2023-02-13T05:56:40.268Z,-1.99
2023-02-13T05:59:07.719Z,-1.91
2023-02-13T06:01:35.370Z,-1.92
2023-02-13T06:04:04.124Z,-1.86
2023-02-13T06:06:32.822Z,-1.84
2023-02-13T06:09:00.284Z,-1.79
2023-02-13T06:11:27.849Z,-1.79
2023-02-13T06:13:55.343Z,-1.72
2023-02-13T06:16:22.946Z,-1.74
2023-02-13T06:18:50.447Z,-1.76
2023-02-13T06:21:17.944Z,-1.70
2023-02-13T06:23:45.447Z,-1.72
2023-02-13T06:26:13.039Z,-1.68
2023-02-13T06:28:40.785Z,-1.60
2023-02-13T06:31:08.540Z,-1.57
2023-02-13T06:33:36.150Z,-1.45
2023-02-13T06:36:03.893Z,-1.41
2023-02-13T06:38:32.192Z,-1.29
2023-02-13T06:41:02.959Z,-1.28
2023-02-13T06:43:30.895Z,-1.19
2023-02-13T06:45:58.347Z,-1.15
2023-02-13T06:48:26.053Z,-1.17
2023-02-13T06:55:50.009Z,-0.99
2023-02-13T07:11:32.475Z,-0.91
2023-02-13T07:43:16.345Z,-0.50
2023-02-13T07:46:21.191Z,-0.42
2023-02-13T08:06:43.225Z,-0.21
2023-02-13T08:13:56.414Z,0.06
2023-02-13T08:20:14.320Z,0.10
2023-02-13T08:31:20.481Z,0.41
2023-02-13T08:34:27.898Z,0.43
2023-02-13T08:37:28.880Z,0.54
2023-02-13T08:44:05.803Z,0.58
2023-02-13T08:46:35.576Z,0.54
2023-02-13T08:49:03.512Z,0.57
2023-02-13T08:51:30.966Z,0.63
2023-02-13T08:53:58.525Z,0.68
2023-02-13T08:56:25.967Z,0.65
2023-02-13T08:58:53.516Z,0.67
2023-02-13T09:01:21.403Z,0.71
2023-02-13T09:03:48.832Z,0.72
2023-02-13T09:06:16.389Z,0.82
2023-02-13T09:08:44.385Z,0.90
2023-02-13T09:11:12.079Z,0.97
2023-02-13T09:13:39.655Z,0.99
2023-02-13T09:16:08.551Z,1.04
2023-02-13T09:18:36.190Z,1.08
2023-02-13T09:21:09.519Z,1.18
2023-02-13T09:23:39.892Z,1.14
2023-02-13T09:26:10.049Z,1.08
2023-02-13T09:28:38.422Z,1.19
2023-02-13T09:31:12.281Z,1.25
2023-02-13T09:33:39.961Z,1.29
2023-02-13T09:36:09.627Z,1.36
2023-02-13T09:38:37.645Z,1.41
2023-02-13T09:41:17.379Z,1.50
2023-02-13T09:43:50.962Z,1.58
2023-02-13T09:46:27.823Z,1.64
2023-02-13T09:48:58.021Z,1.73
2023-02-13T09:51:27.920Z,1.84
2023-02-13T09:54:02.734Z,2.04
2023-02-13T09:56:35.552Z,2.14
2023-02-13T09:59:22.023Z,2.36
2023-02-13T10:01:53.120Z,2.33
2023-02-13T10:04:48.166Z,2.47
2023-02-13T10:07:27.802Z,2.48
2023-02-13T10:09:55.294Z,2.49
2023-02-13T10:12:32.354Z,2.49
2023-02-13T10:15:21.069Z,2.33
2023-02-13T10:17:58.662Z,2.35
2023-02-13T10:20:55.277Z,2.62
2023-02-13T10:23:22.641Z,2.36
2023-02-13T10:26:08.346Z,2.31
2023-02-13T10:28:47.234Z,2.18
2023-02-13T10:31:19.406Z,2.10
2023-02-13T10:33:50.894Z,2.04
2023-02-13T10:36:36.067Z,2.06
2023-02-13T10:39:24.579Z,2.19
2023-02-13T10:42:09.050Z,2.16
2023-02-13T10:45:09.247Z,2.31
2023-02-13T10:47:52.136Z,2.25
2023-02-13T10:50:50.415Z,2.44
2023-02-13T10:53:50.185Z,2.63
2023-02-13T10:56:29.984Z,2.60
2023-02-13T10:59:15.918Z,2.65
2023-02-13T11:02:11.949Z,2.64
2023-02-13T11:05:02.110Z,2.51
2023-02-13T11:07:31.616Z,2.41
2023-02-13T11:10:05.832Z,2.41
2023-02-13T11:12:34.597Z,2.43
2023-02-13T11:15:08.894Z,2.37
2023-02-13T11:17:41.017Z,2.55
2023-02-13T11:20:25.985Z,2.75
2023-02-13T11:22:53.923Z,2.79
2023-02-13T11:25:28.993Z,2.91
2023-02-13T11:28:10.660Z,3.14
2023-02-13T11:30:39.451Z,3.11
2023-02-13T11:33:18.766Z,3.24
2023-02-13T11:35:48.205Z,3.12
2023-02-13T11:38:15.880Z,3.08
2023-02-13T11:40:49.770Z,2.99
2023-02-13T11:43:22.104Z,2.98
2023-02-13T11:46:05.760Z,3.07
2023-02-13T11:48:33.445Z,2.98
2023-02-13T11:51:01.462Z,2.95
2023-02-13T11:53:38.333Z,2.92
2023-02-13T11:56:05.859Z,2.98
2023-02-13T11:58:34.162Z,2.91
2023-02-13T12:01:19.987Z,3.13
2023-02-13T12:04:16.429Z,3.23
2023-02-13T12:07:16.303Z,3.32
2023-02-13T12:09:46.674Z,3.28
2023-02-13T12:12:33.691Z,3.40
2023-02-13T12:15:10.728Z,3.46
2023-02-13T12:17:42.421Z,3.43
2023-02-13T12:20:15.591Z,3.48
2023-02-13T12:23:05.692Z,3.38
2023-02-13T12:25:54.565Z,3.42
2023-02-13T12:28:32.889Z,3.32
2023-02-13T12:31:18.764Z,3.14
2023-02-13T12:34:07.544Z,3.24
2023-02-13T12:36:59.929Z,3.23
2023-02-13T12:39:34.551Z,3.14
2023-02-13T12:42:20.683Z,3.18
2023-02-13T12:44:50.216Z,3.04
2023-02-13T12:47:30.772Z,3.03
2023-02-13T12:50:17.498Z,2.98
2023-02-13T12:52:50.790Z,2.98
2023-02-13T12:55:47.658Z,3.03
2023-02-13T12:58:33.720Z,2.89
2023-02-13T13:01:32.399Z,2.91
2023-02-13T13:04:29.716Z,3.00
2023-02-13T13:07:38.724Z,3.13
2023-02-13T13:10:24.162Z,3.13
2023-02-13T13:13:35.985Z,3.12
2023-02-13T13:16:35.975Z,3.14
2023-02-13T13:19:03.359Z,3.03
2023-02-13T13:22:12.467Z,3.11
2023-02-13T13:25:01.225Z,3.05
2023-02-13T13:27:35.109Z,3.01
2023-02-13T13:30:27.586Z,3.05
2023-02-13T13:33:00.654Z,2.99
2023-02-13T13:35:29.820Z,3.01
2023-02-13T13:38:09.028Z,3.00
2023-02-13T13:40:41.900Z,3.00
2023-02-13T13:43:46.865Z,3.06
2023-02-13T13:47:02.951Z,3.08
2023-02-13T13:49:54.029Z,3.15
2023-02-13T13:52:33.102Z,3.01
2023-02-13T13:55:02.859Z,2.87
2023-02-13T13:57:34.279Z,2.85
2023-02-13T14:00:21.742Z,2.77
2023-02-13T14:03:33.631Z,2.85
2023-02-13T14:06:10.427Z,2.76
2023-02-13T14:08:40.984Z,2.69
2023-02-13T14:11:30.953Z,2.71
2023-02-13T14:13:59.626Z,2.61
2023-02-13T14:16:45.146Z,2.67
2023-02-13T14:19:34.028Z,2.68
2023-02-13T14:22:31.660Z,2.57
2023-02-13T14:25:01.475Z,2.45
2023-02-13T14:27:33.315Z,2.41
2023-02-13T14:30:02.107Z,2.43
2023-02-13T14:32:40.855Z,2.41
2023-02-13T14:35:24.710Z,2.48
2023-02-13T14:37:54.213Z,2.34
2023-02-13T14:40:22.317Z,2.38
2023-02-13T14:43:27.270Z,2.51
2023-02-13T14:46:08.545Z,2.45
2023-02-13T14:48:45.507Z,2.48
2023-02-13T14:51:22.017Z,2.54
2023-02-13T14:54:03.859Z,2.46
2023-02-13T14:56:32.722Z,2.38
2023-02-13T14:59:19.011Z,2.50
2023-02-13T15:02:26.050Z,2.56
2023-02-13T15:05:01.480Z,2.45
2023-02-13T15:07:38.306Z,2.48
2023-02-13T15:10:12.791Z,2.52
2023-02-13T15:12:40.754Z,2.50
2023-02-13T15:15:52.248Z,2.68
2023-02-13T15:18:27.370Z,2.60
2023-02-13T15:21:00.919Z,2.55
2023-02-13T15:23:31.076Z,2.55
2023-02-13T15:26:00.880Z,2.60
2023-02-13T15:28:29.272Z,2.47
2023-02-13T15:31:20.988Z,2.39
2023-02-13T15:33:50.985Z,2.27
2023-02-13T15:36:25.612Z,2.29
2023-02-13T15:39:22.776Z,2.41
2023-02-13T15:41:54.370Z,2.24
2023-02-13T15:44:39.852Z,2.34
2023-02-13T15:47:30.588Z,2.31
2023-02-13T15:49:58.630Z,2.15
2023-02-13T15:52:32.442Z,2.22
2023-02-13T15:55:00.484Z,2.14
2023-02-13T15:57:28.914Z,2.08
2023-02-13T15:59:59.197Z,2.08
2023-02-13T16:02:47.996Z,2.16
2023-02-13T16:05:20.020Z,2.13
2023-02-13T16:07:57.526Z,2.07
2023-02-13T16:10:34.472Z,2.16
2023-02-13T16:13:06.904Z,2.16
2023-02-13T16:15:37.237Z,2.17
2023-02-13T16:18:06.424Z,2.16
2023-02-13T16:20:35.354Z,2.21
2023-02-13T16:23:07.390Z,2.23
2023-02-13T16:26:03.810Z,2.28
2023-02-13T16:28:36.067Z,2.38
2023-02-13T16:31:05.096Z,2.35
2023-02-13T16:33:42.656Z,2.38
2023-02-13T16:36:10.250Z,2.29
2023-02-13T16:38:41.695Z,2.30
2023-02-13T16:41:25.928Z,2.40
2023-02-13T16:44:03.516Z,2.38
2023-02-13T16:46:30.960Z,2.60
2023-02-13T16:49:00.491Z,2.53
2023-02-13T16:51:42.919Z,2.59
2023-02-13T16:54:10.492Z,2.61
2023-02-13T16:56:45.701Z,2.61
2023-02-13T16:59:36.250Z,2.68
2023-02-13T17:02:16.183Z,2.62
2023-02-13T17:04:50.954Z,2.68
2023-02-13T17:07:28.818Z,2.74
2023-02-13T17:10:02.543Z,2.68
2023-02-13T17:12:32.040Z,2.65
2023-02-13T17:15:00.325Z,2.71
2023-02-13T17:17:30.718Z,2.69
2023-02-13T17:20:02.350Z,2.72
2023-02-13T17:22:43.246Z,2.78
2023-02-13T17:25:22.058Z,2.88
2023-02-13T17:27:51.297Z,2.84
2023-02-13T17:30:24.457Z,2.94
2023-02-13T17:32:58.817Z,2.98
2023-02-13T17:35:28.787Z,2.95
2023-02-13T17:37:56.685Z,3.01
2023-02-13T17:40:28.518Z,2.98
2023-02-13T17:42:57.959Z,2.96
2023-02-13T17:45:28.218Z,2.93
2023-02-13T17:47:57.908Z,2.93
2023-02-13T17:50:27.881Z,2.96
2023-02-13T17:52:58.534Z,2.90
2023-02-13T17:55:28.935Z,2.94
2023-02-13T17:57:58.450Z,2.84
2023-02-13T18:00:29.307Z,2.87
2023-02-13T18:02:59.408Z,2.88
2023-02-13T18:05:32.961Z,2.87
2023-02-13T18:08:03.890Z,2.89
2023-02-13T18:10:36.879Z,2.88
2023-02-13T18:13:04.901Z,2.85
2023-02-13T18:15:34.200Z,2.86
2023-02-13T18:18:03.338Z,2.87
2023-02-13T18:20:31.464Z,2.85
2023-02-13T18:22:59.322Z,2.87
2023-02-13T18:25:27.512Z,2.85
2023-02-13T18:27:55.635Z,2.83
2023-02-13T18:30:24.349Z,2.85
2023-02-13T18:32:56.372Z,2.86
2023-02-13T18:35:24.036Z,2.85
2023-02-13T18:37:52.004Z,2.82
2023-02-13T18:40:20.050Z,2.79
2023-02-13T18:42:48.405Z,2.81
2023-02-13T18:45:16.688Z,2.74
2023-02-13T18:47:44.565Z,2.78
2023-02-13T18:50:14.285Z,2.79
2023-02-13T18:52:42.239Z,2.81
2023-02-13T18:55:09.845Z,2.87
2023-02-13T18:57:37.652Z,2.85
2023-02-13T19:00:05.917Z,2.90
2023-02-13T19:02:34.563Z,2.86
2023-02-13T19:05:02.890Z,2.88
2023-02-13T19:07:51.069Z,2.85
2023-02-13T19:10:20.839Z,2.88
2023-02-13T19:12:49.265Z,2.85
2023-02-13T19:15:16.831Z,2.90
2023-02-13T19:17:46.838Z,2.86
2023-02-13T19:20:16.766Z,2.82
2023-02-13T19:22:44.472Z,2.83
2023-02-13T19:25:11.955Z,2.81
2023-02-13T19:27:40.447Z,2.82
2023-02-13T19:30:09.774Z,2.84
2023-02-13T19:32:37.316Z,2.82
2023-02-13T19:35:05.399Z,2.87
2023-02-13T19:37:43.109Z,2.88
2023-02-13T19:40:13.377Z,2.90
2023-02-13T19:42:40.973Z,2.85
2023-02-13T19:45:08.998Z,2.84
2023-02-13T19:47:36.955Z,2.85
2023-02-13T19:50:04.758Z,2.86
2023-02-13T19:52:32.419Z,2.86
2023-02-13T19:54:59.876Z,2.88
2023-02-13T19:57:28.020Z,2.88
2023-02-13T19:59:55.554Z,2.89
2023-02-13T20:02:23.159Z,2.87
2023-02-13T20:04:50.599Z,2.93
2023-02-13T20:07:18.103Z,2.93
2023-02-13T20:09:45.540Z,2.90
2023-02-13T20:12:13.072Z,2.86
2023-02-13T20:14:40.738Z,2.88
2023-02-13T20:17:08.303Z,2.90
2023-02-13T20:19:37.132Z,2.91
2023-02-13T20:22:04.617Z,2.94
2023-02-13T20:24:33.148Z,2.98
2023-02-13T20:27:00.942Z,3.00
2023-02-13T20:29:28.396Z,3.00
2023-02-13T20:31:56.004Z,3.01
2023-02-13T20:34:25.908Z,2.97
2023-02-13T20:36:54.319Z,2.97
2023-02-13T20:39:21.873Z,3.00
2023-02-13T20:41:50.551Z,3.05
2023-02-13T20:44:22.731Z,3.06
2023-02-13T20:46:51.168Z,3.04
2023-02-13T20:49:22.075Z,3.11
2023-02-13T20:51:50.094Z,3.12
2023-02-13T20:54:17.752Z,3.10
2023-02-13T20:56:46.113Z,3.12
2023-02-13T20:59:13.803Z,3.12
2023-02-13T21:01:41.654Z,3.13
2023-02-13T21:04:11.337Z,3.14
2023-02-13T21:06:42.163Z,3.16
2023-02-13T21:09:12.916Z,3.11
2023-02-13T21:11:43.565Z,3.08
2023-02-13T21:14:12.349Z,3.15
2023-02-13T21:16:41.741Z,3.14
2023-02-13T21:19:14.197Z,3.18
2023-02-13T21:21:44.589Z,3.20
2023-02-13T21:24:19.056Z,3.15
2023-02-13T21:26:49.612Z,3.16
2023-02-13T21:29:17.106Z,3.16
2023-02-13T21:31:49.417Z,3.21
2023-02-13T21:34:18.908Z,3.21
2023-02-13T21:36:46.925Z,3.25
2023-02-13T21:39:15.028Z,3.28
2023-02-13T21:41:44.751Z,3.31
2023-02-13T21:44:14.665Z,3.31
2023-02-13T21:46:43.917Z,3.35
2023-02-13T21:49:13.857Z,3.36
2023-02-13T21:51:41.609Z,3.32
2023-02-13T21:54:10.548Z,3.23
2023-02-13T21:56:40.788Z,3.20
2023-02-13T21:59:10.451Z,3.16
2023-02-13T22:01:50.379Z,3.15
2023-02-13T22:04:18.505Z,3.22
2023-02-13T22:06:49.944Z,3.24
2023-02-13T22:09:19.956Z,3.16
2023-02-13T22:11:47.770Z,3.22
2023-02-13T22:14:18.540Z,3.29
2023-02-13T22:16:49.483Z,3.28
2023-02-13T22:19:17.564Z,3.27
2023-02-13T22:21:45.396Z,3.25
2023-02-13T22:24:13.451Z,3.20
2023-02-13T22:26:45.373Z,3.17
2023-02-13T22:29:15.219Z,3.15
2023-02-13T22:31:43.013Z,3.14
2023-02-13T22:34:13.598Z,3.12
2023-02-13T22:36:42.990Z,3.08
2023-02-13T22:39:12.046Z,3.07
2023-02-13T22:41:39.829Z,3.07
2023-02-13T22:44:07.289Z,3.11
2023-02-13T22:46:35.603Z,3.09
2023-02-13T22:49:03.322Z,3.11
2023-02-13T22:51:36.127Z,3.13
2023-02-13T22:54:04.954Z,3.14
2023-02-13T22:56:33.016Z,3.16
2023-02-13T22:59:00.712Z,3.16
2023-02-13T23:01:29.093Z,3.19
2023-02-13T23:03:56.923Z,3.24
2023-02-13T23:06:25.173Z,3.22
2023-02-13T23:08:53.764Z,3.25
2023-02-13T23:11:45.649Z,3.28
2023-02-13T23:14:13.891Z,3.29
2023-02-13T23:17:00.915Z,3.27
2023-02-13T23:19:31.558Z,3.34
2023-02-13T23:22:00.098Z,3.30
2023-02-13T23:24:29.502Z,3.28
2023-02-13T23:26:57.220Z,3.18
2023-02-13T23:29:24.777Z,3.22
2023-02-13T23:31:52.824Z,3.18
2023-02-13T23:34:20.472Z,3.16
2023-02-13T23:36:48.082Z,3.11
2023-02-13T23:39:15.646Z,3.14
2023-02-13T23:41:43.242Z,3.16
2023-02-13T23:44:10.765Z,3.18
2023-02-13T23:46:38.324Z,3.18
2023-02-13T23:49:07.490Z,3.18
2023-02-13T23:51:35.355Z,3.16
2023-02-13T23:54:03.288Z,3.15
2023-02-13T23:56:31.022Z,3.20
2023-02-13T23:58:58.821Z,3.24
